createdAt,value
2022-10-09T00:00:24.289Z,6.01
2022-10-09T00:05:24.215Z,5.99
2022-10-09T00:10:24.205Z,5.94
2022-10-09T00:15:24.114Z,5.89
2022-10-09T00:20:24.059Z,5.83
2022-10-09T00:25:24.168Z,5.86
2022-10-09T00:30:23.967Z,5.86
2022-10-09T00:35:24.055Z,5.85
2022-10-09T00:40:23.885Z,5.85
2022-10-09T00:45:24.958Z,5.83
2022-10-09T00:50:23.885Z,5.82
2022-10-09T00:55:23.696Z,5.75
2022-10-09T01:00:23.630Z,5.71
2022-10-09T01:05:23.563Z,5.71
2022-10-09T01:10:23.550Z,5.60
2022-10-09T01:15:23.654Z,5.57
2022-10-09T01:20:23.474Z,5.46
2022-10-09T01:25:23.351Z,5.39
2022-10-09T01:30:23.393Z,5.35
2022-10-09T01:35:23.368Z,5.28
2022-10-09T01:40:23.275Z,5.24
2022-10-09T01:45:23.232Z,5.24
2022-10-09T01:50:23.296Z,5.25
2022-10-09T01:55:23.219Z,5.22
2022-10-09T02:00:23.287Z,5.24
2022-10-09T02:05:23.006Z,5.20
2022-10-09T02:10:23.889Z,5.21
2022-10-09T02:15:22.821Z,5.28
2022-10-09T02:20:22.819Z,5.22
2022-10-09T02:25:22.708Z,5.17
2022-10-09T02:30:22.659Z,5.21
2022-10-09T02:35:22.580Z,5.22
2022-10-09T02:40:22.553Z,5.25
2022-10-09T02:45:22.526Z,5.18
2022-10-09T02:50:22.626Z,5.17
2022-10-09T02:55:23.531Z,5.09
2022-10-09T03:00:22.486Z,5.03
2022-10-09T03:05:22.349Z,5.02
2022-10-09T03:10:23.417Z,5.00
2022-10-09T03:15:22.275Z,5.02
2022-10-09T03:20:22.264Z,5.02
2022-10-09T03:25:22.111Z,5.02
2022-10-09T03:30:22.159Z,4.97
2022-10-09T03:35:21.955Z,4.96
2022-10-09T03:40:21.872Z,4.91
2022-10-09T03:45:21.833Z,4.78
2022-10-09T03:50:21.825Z,4.65
2022-10-09T03:55:21.760Z,4.58
2022-10-09T04:00:21.702Z,4.48
2022-10-09T04:05:21.767Z,4.47
2022-10-09T04:10:22.640Z,4.47
2022-10-09T04:15:21.648Z,4.45
2022-10-09T04:20:21.502Z,4.50
2022-10-09T04:25:21.549Z,4.55
2022-10-09T04:30:21.513Z,4.58
2022-10-09T04:35:21.315Z,4.54
2022-10-09T04:40:21.273Z,4.63
2022-10-09T04:45:21.230Z,4.54
2022-10-09T04:50:21.160Z,4.52
2022-10-09T04:55:21.113Z,4.36
2022-10-09T05:00:21.185Z,4.26
2022-10-09T05:05:20.976Z,4.20
2022-10-09T05:10:21.083Z,4.20
2022-10-09T05:15:20.958Z,4.22
2022-10-09T05:20:20.889Z,4.18
2022-10-09T05:25:20.979Z,4.09
2022-10-09T05:30:21.782Z,4.12
2022-10-09T05:35:21.008Z,4.09
2022-10-09T05:40:21.512Z,3.97
2022-10-09T05:45:20.664Z,3.93
2022-10-09T05:50:20.613Z,3.87
2022-10-09T05:55:20.550Z,3.86
2022-10-09T06:00:20.519Z,3.84
2022-10-09T06:05:20.518Z,3.88
2022-10-09T06:10:20.263Z,3.93
2022-10-09T06:15:20.487Z,3.93
2022-10-09T06:20:20.503Z,3.93
2022-10-09T06:25:21.235Z,3.96
2022-10-09T06:30:20.064Z,3.98
2022-10-09T06:57:28.184Z,5.06
2022-10-09T07:02:27.862Z,5.12
2022-10-09T07:07:27.783Z,5.17
2022-10-09T07:12:27.691Z,5.36
2022-10-09T07:17:27.687Z,5.49
2022-10-09T07:22:27.712Z,5.78
2022-10-09T07:27:27.493Z,6.31
2022-10-09T07:32:27.444Z,6.76
2022-10-09T07:37:27.456Z,7.15
2022-10-09T07:42:27.365Z,7.61
2022-10-09T07:47:27.274Z,8.22
2022-10-09T07:52:27.365Z,8.65
2022-10-09T07:57:27.278Z,9.17
2022-10-09T08:02:27.165Z,9.68
2022-10-09T08:07:30.311Z,10.15
2022-10-09T08:12:28.111Z,10.53
2022-10-09T08:17:27.120Z,10.88
2022-10-09T08:22:28.042Z,11.15
2022-10-09T08:27:26.915Z,11.52
2022-10-09T08:32:27.002Z,12.05
2022-10-09T08:37:26.909Z,12.82
2022-10-09T08:42:28.233Z,13.14
2022-10-09T08:47:27.770Z,13.38
2022-10-09T08:52:26.732Z,13.69
2022-10-09T08:57:26.490Z,13.99
2022-10-09T09:02:26.497Z,14.37
2022-10-09T09:07:26.418Z,14.73
2022-10-09T09:12:26.370Z,14.81
2022-10-09T09:17:26.294Z,15.10
2022-10-09T09:22:26.205Z,15.47
2022-10-09T09:27:26.157Z,15.64
2022-10-09T09:32:26.113Z,15.38
2022-10-09T09:37:26.092Z,15.35
2022-10-09T09:42:26.121Z,15.51
2022-10-09T09:47:25.932Z,15.94
2022-10-09T09:52:25.870Z,16.20
2022-10-09T09:57:34.667Z,16.30
2022-10-09T10:02:25.802Z,16.20
2022-10-09T10:07:25.694Z,16.53
2022-10-09T10:12:25.649Z,16.78
2022-10-09T10:17:25.604Z,16.91
2022-10-09T10:22:25.522Z,17.21
2022-10-09T10:27:25.463Z,17.21
2022-10-09T10:32:25.429Z,17.49
2022-10-09T10:37:25.447Z,17.48
2022-10-09T10:42:27.637Z,17.58
2022-10-09T10:47:25.318Z,18.05
2022-10-09T10:52:25.198Z,17.99
2022-10-09T10:57:25.146Z,17.89
2022-10-09T11:02:25.088Z,17.97
2022-10-09T11:07:25.038Z,17.92
2022-10-09T11:12:46.912Z,17.78
2022-10-09T11:17:25.954Z,17.92
2022-10-09T11:22:24.892Z,18.03
2022-10-09T11:27:24.848Z,17.79
2022-10-09T11:32:24.898Z,18.00
2022-10-09T11:37:24.794Z,17.86
2022-10-09T11:42:24.834Z,17.78
2022-10-09T11:47:24.690Z,17.46
2022-10-09T11:52:24.628Z,17.62
2022-10-09T11:57:24.560Z,17.78
2022-10-09T12:02:24.620Z,17.79
2022-10-09T12:07:24.471Z,17.74
2022-10-09T12:12:24.410Z,17.95
2022-10-09T12:17:24.369Z,17.95
2022-10-09T12:22:24.295Z,17.93
2022-10-09T12:27:24.223Z,17.90
2022-10-09T12:32:25.204Z,17.87
2022-10-09T12:37:24.121Z,17.95
2022-10-09T12:42:24.155Z,17.95
2022-10-09T12:47:23.996Z,18.08
2022-10-09T12:52:23.967Z,17.92
2022-10-09T12:57:26.867Z,17.58
2022-10-09T13:02:24.947Z,17.68
2022-10-09T13:07:23.807Z,17.90
2022-10-09T13:12:23.867Z,17.38
2022-10-09T13:17:23.719Z,17.38
2022-10-09T13:22:23.621Z,17.22
2022-10-09T13:27:23.580Z,17.34
2022-10-09T13:32:23.601Z,17.22
2022-10-09T13:37:23.532Z,17.08
2022-10-09T13:42:23.552Z,17.12
2022-10-09T13:47:24.609Z,17.08
2022-10-09T13:52:23.290Z,16.94
2022-10-09T13:57:23.312Z,17.03
2022-10-09T14:02:23.256Z,16.91
2022-10-09T14:07:23.179Z,16.86
2022-10-09T14:12:23.170Z,16.83
2022-10-09T14:17:23.020Z,16.76
2022-10-09T14:22:22.916Z,16.71
2022-10-09T14:27:23.830Z,16.68
2022-10-09T14:32:22.856Z,16.61
2022-10-09T14:37:41.232Z,16.48
2022-10-09T14:42:23.755Z,16.50
2022-10-09T14:47:22.835Z,16.46
2022-10-09T14:52:22.643Z,16.27
2022-10-09T14:57:22.623Z,16.31
2022-10-09T15:02:22.566Z,16.33
2022-10-09T15:07:22.547Z,16.21
2022-10-09T15:12:22.485Z,16.07
2022-10-09T15:17:22.417Z,15.97
2022-10-09T15:22:22.381Z,15.83
2022-10-09T15:27:22.262Z,15.71
2022-10-09T15:32:22.191Z,15.71
2022-10-09T15:37:22.260Z,15.59
2022-10-09T15:42:22.141Z,15.60
2022-10-09T15:47:39.253Z,15.43
2022-10-09T15:52:22.927Z,15.34
2022-10-09T16:00:04.423Z,15.23
2022-10-09T16:05:04.433Z,15.10
2022-10-09T16:10:04.378Z,14.89
2022-10-09T16:15:04.317Z,14.62
2022-10-09T16:20:04.277Z,14.42
2022-10-09T16:25:04.919Z,14.40
2022-10-09T16:30:04.256Z,14.09
2022-10-09T16:35:05.106Z,14.03
2022-10-09T16:40:03.997Z,13.97
2022-10-09T16:45:04.387Z,13.88
2022-10-09T16:50:04.008Z,13.75
2022-10-09T16:55:03.838Z,13.45
2022-10-09T17:00:03.891Z,13.15
2022-10-09T17:05:03.865Z,12.95
2022-10-09T17:10:03.649Z,12.82
2022-10-09T17:15:03.614Z,12.53
2022-10-09T17:20:03.715Z,12.34
2022-10-09T17:25:03.581Z,12.21
2022-10-09T17:30:03.487Z,12.01
2022-10-09T17:35:03.429Z,11.91
2022-10-09T17:40:03.427Z,11.76
2022-10-09T17:45:03.312Z,11.65
2022-10-09T17:50:03.321Z,11.58
2022-10-09T17:55:03.233Z,11.44
2022-10-09T18:00:03.123Z,11.35
2022-10-09T18:05:03.202Z,11.21
2022-10-09T18:10:03.002Z,11.06
2022-10-09T18:15:03.993Z,10.99
2022-10-09T18:20:03.017Z,10.88
2022-10-09T18:25:02.853Z,10.82
2022-10-09T18:30:02.803Z,10.73
2022-10-09T18:35:02.727Z,10.60
2022-10-09T18:40:02.695Z,10.51
2022-10-09T18:45:02.826Z,10.38
2022-10-09T18:50:02.654Z,10.30
2022-10-09T18:55:02.615Z,10.20
2022-10-09T19:00:02.451Z,10.08
2022-10-09T19:05:02.474Z,9.96
2022-10-09T19:10:02.344Z,9.89
2022-10-09T19:15:02.451Z,9.76
2022-10-09T19:20:02.411Z,9.65
2022-10-09T19:25:03.289Z,9.51
2022-10-09T19:30:02.132Z,9.43
2022-10-09T19:35:02.092Z,9.20
2022-10-09T19:40:02.081Z,9.08
2022-10-09T19:45:02.108Z,8.98
2022-10-09T19:50:02.078Z,8.92
2022-10-09T19:55:02.061Z,8.87
2022-10-09T20:00:01.845Z,8.80
2022-10-09T20:05:01.744Z,8.76
2022-10-09T20:10:01.812Z,8.73
2022-10-09T20:15:01.624Z,8.65
2022-10-09T20:20:01.662Z,8.59
2022-10-09T20:25:01.620Z,8.45
2022-10-09T20:30:01.529Z,8.37
2022-10-09T20:35:01.567Z,8.29
2022-10-09T20:40:01.434Z,8.23
2022-10-09T20:45:01.372Z,8.16
2022-10-09T20:50:01.406Z,8.15
2022-10-09T20:55:01.251Z,8.10
2022-10-09T21:00:01.167Z,8.26
2022-10-09T21:05:01.287Z,8.45
2022-10-09T21:10:01.118Z,8.59
2022-10-09T21:15:01.055Z,8.71
2022-10-09T21:20:00.967Z,8.98
2022-10-09T21:25:00.909Z,9.23
2022-10-09T21:30:00.783Z,9.38
2022-10-09T21:35:00.832Z,9.47
2022-10-09T21:40:00.775Z,9.58
2022-10-09T21:45:00.660Z,9.66
2022-10-09T21:50:01.751Z,9.86
2022-10-09T21:55:00.646Z,9.91
2022-10-09T22:00:00.562Z,9.97
2022-10-09T22:05:00.420Z,10.20
2022-10-09T22:10:00.404Z,10.29
2022-10-09T22:15:00.515Z,10.44
2022-10-09T22:20:00.463Z,10.53
2022-10-09T22:25:00.301Z,11.00
2022-10-09T22:30:00.248Z,10.92
2022-10-09T22:35:00.173Z,10.86
2022-10-09T22:40:00.091Z,10.91
2022-10-09T22:45:01.038Z,11.32
2022-10-09T22:49:59.917Z,11.37
2022-10-09T22:55:00.011Z,11.29
2022-10-09T22:59:59.799Z,11.25
2022-10-09T23:04:59.781Z,11.36
2022-10-09T23:09:59.727Z,11.47
2022-10-09T23:15:00.729Z,11.86
2022-10-09T23:19:59.726Z,11.69
2022-10-09T23:24:59.635Z,11.35
2022-10-09T23:30:00.525Z,11.29
2022-10-09T23:34:59.450Z,11.43
2022-10-09T23:39:59.633Z,11.35
2022-10-09T23:45:00.436Z,11.32
2022-10-09T23:49:59.451Z,11.29
2022-10-09T23:54:59.235Z,11.19
2022-10-09T23:59:59.181Z,11.25
